Time,TemperatureF,DewpointF,PressureIn,WindDirection,WindDirectionDegrees,WindSpeedMPH,WindSpeedGustMPH,Humidity,HourlyPrecipIn,Conditions,Clouds,dailyrainin,SoftwareType,DateUTC
2013-01-25 00:03:00,62.8,61.7,30.12,SSE,165,1.0,7.0,96,0.00,,,0.00,meteohub,2013-01-25 06:03:00,
2013-01-25 00:08:00,62.6,61.5,30.12,SSE,151,2.0,6.0,96,0.00,,,0.00,meteohub,2013-01-25 06:08:00,
2013-01-25 00:14:00,62.4,61.3,30.12,South,171,1.0,5.0,96,0.00,,,0.00,meteohub,2013-01-25 06:14:00,
2013-01-25 00:19:00,62.2,61.2,30.12,SSE,159,1.0,4.0,96,0.00,,,0.00,meteohub,2013-01-25 06:19:00,
2013-01-25 00:24:00,62.2,61.2,30.12,SSE,150,2.0,4.0,96,0.00,,,0.00,meteohub,2013-01-25 06:24:00,
2013-01-25 00:29:00,62.1,61.0,30.12,SSE,155,2.0,3.0,96,0.00,,,0.00,meteohub,2013-01-25 06:29:00,
2013-01-25 00:34:00,62.1,61.2,30.11,SE,146,2.0,4.0,97,0.00,,,0.00,meteohub,2013-01-25 06:34:00,
2013-01-25 00:39:00,61.9,60.8,30.11,SE,141,3.0,4.0,96,0.00,,,0.00,meteohub,2013-01-25 06:39:00,
2013-01-25 00:44:00,61.9,61.0,30.11,SE,137,4.0,5.0,97,0.00,,,0.00,meteohub,2013-01-25 06:44:00,
2013-01-25 00:49:00,61.5,60.6,30.11,SE,141,4.0,6.0,97,0.00,,,0.00,meteohub,2013-01-25 06:49:00,
2013-01-25 00:54:00,61.5,60.6,30.11,SSE,159,4.0,6.0,97,0.00,,,0.00,meteohub,2013-01-25 06:54:00,
2013-01-25 00:59:00,61.3,60.4,30.11,SE,143,4.0,6.0,97,0.00,,,0.00,meteohub,2013-01-25 06:59:00,
2013-01-25 01:04:00,61.3,60.4,30.11,SE,134,3.0,7.0,97,0.00,,,0.00,meteohub,2013-01-25 07:04:00,
2013-01-25 01:09:00,61.3,60.4,30.10,South,181,5.0,7.0,97,0.00,,,0.00,meteohub,2013-01-25 07:09:00,
2013-01-25 01:14:00,61.2,60.3,30.10,SSE,158,4.0,7.0,97,0.00,,,0.00,meteohub,2013-01-25 07:14:00,
2013-01-25 01:19:00,61.0,60.1,30.10,SSE,158,4.0,7.0,97,0.00,,,0.00,meteohub,2013-01-25 07:19:00,
2013-01-25 01:24:00,60.8,59.9,30.10,SW,216,4.0,7.0,97,0.00,,,0.00,meteohub,2013-01-25 07:24:00,
2013-01-25 01:29:00,60.6,59.7,30.10,SSE,159,5.0,7.0,97,0.00,,,0.00,meteohub,2013-01-25 07:29:00,
2013-01-25 01:35:00,60.6,59.7,30.10,South,181,4.0,7.0,97,0.00,,,0.00,meteohub,2013-01-25 07:35:00,
2013-01-25 01:40:00,60.6,60.1,30.10,SSE,158,4.0,7.0,98,0.00,,,0.00,meteohub,2013-01-25 07:40:00,
2013-01-25 01:45:00,60.4,59.9,30.10,SE,131,3.0,6.0,98,0.00,,,0.00,meteohub,2013-01-25 07:45:00,
2013-01-25 01:50:00,60.4,59.9,30.09,SE,129,4.0,5.0,98,0.00,,,0.00,meteohub,2013-01-25 07:50:00,
2013-01-25 01:55:00,60.4,59.9,30.09,SE,139,5.0,6.0,98,0.00,,,0.00,meteohub,2013-01-25 07:55:00,
2013-01-25 02:00:00,60.4,59.9,30.09,SSE,148,4.0,7.0,98,0.00,,,0.00,meteohub,2013-01-25 08:00:00,
2013-01-25 02:05:00,60.3,59.7,30.09,SSE,160,4.0,7.0,98,0.00,,,0.00,meteohub,2013-01-25 08:05:00,
2013-01-25 02:10:00,60.3,59.7,30.09,SSE,149,5.0,7.0,98,0.00,,,0.00,meteohub,2013-01-25 08:10:00,
2013-01-25 02:15:00,60.1,59.5,30.09,SSE,157,4.0,8.0,98,0.00,,,0.00,meteohub,2013-01-25 08:15:00,
2013-01-25 02:20:00,59.9,59.4,30.08,SSE,152,3.0,8.0,98,0.00,,,0.00,meteohub,2013-01-25 08:20:00,
2013-01-25 02:25:00,59.7,59.2,30.08,SE,129,4.0,7.0,98,0.00,,,0.00,meteohub,2013-01-25 08:25:00,
2013-01-25 02:30:00,59.7,59.2,30.08,SE,146,4.0,7.0,98,0.00,,,0.00,meteohub,2013-01-25 08:30:00,
2013-01-25 02:35:00,59.5,59.0,30.08,SE,146,3.0,6.0,98,0.00,,,0.00,meteohub,2013-01-25 08:35:00,
2013-01-25 02:40:00,59.4,58.8,30.08,SSE,149,4.0,6.0,98,0.00,,,0.00,meteohub,2013-01-25 08:40:00,
2013-01-25 02:46:00,59.4,58.8,30.08,SSE,155,6.0,7.0,98,0.00,,,0.00,meteohub,2013-01-25 08:46:00,
2013-01-25 02:51:00,59.2,58.6,30.07,SE,134,5.0,7.0,98,0.00,,,0.00,meteohub,2013-01-25 08:51:00,
2013-01-25 02:56:00,59.2,58.6,30.07,SE,143,5.0,8.0,98,0.00,,,0.00,meteohub,2013-01-25 08:56:00,
2013-01-25 03:01:00,59.2,58.6,30.07,SE,135,5.0,8.0,98,0.00,,,0.00,meteohub,2013-01-25 09:01:00,
2013-01-25 03:06:00,59.2,58.6,30.07,SSE,155,4.0,7.0,98,0.00,,,0.00,meteohub,2013-01-25 09:06:00,
2013-01-25 03:11:00,59.2,58.6,30.07,SE,146,4.0,7.0,98,0.00,,,0.00,meteohub,2013-01-25 09:11:00,
2013-01-25 03:16:00,59.2,58.6,30.07,SSE,162,6.0,7.0,98,0.00,,,0.00,meteohub,2013-01-25 09:16:00,
2013-01-25 03:21:00,59.2,58.6,30.07,SE,135,3.0,7.0,98,0.00,,,0.00,meteohub,2013-01-25 09:21:00,
2013-01-25 03:26:00,59.2,58.6,30.06,SSE,148,3.0,7.0,98,0.00,,,0.00,meteohub,2013-01-25 09:26:00,
2013-01-25 03:31:00,59.0,58.6,30.06,SE,146,1.0,6.0,99,0.00,,,0.00,meteohub,2013-01-25 09:31:00,
2013-01-25 03:36:00,59.0,58.6,30.07,South,169,2.0,5.0,99,0.00,,,0.00,meteohub,2013-01-25 09:36:00,
2013-01-25 03:41:00,59.0,58.6,30.06,SSE,165,1.0,4.0,99,0.00,,,0.00,meteohub,2013-01-25 09:41:00,
2013-01-25 03:46:00,58.8,58.5,30.06,SSE,160,1.0,3.0,99,0.00,,,0.00,meteohub,2013-01-25 09:46:00,
2013-01-25 03:51:00,58.8,58.5,30.06,SSE,167,1.0,3.0,99,0.00,,,0.00,meteohub,2013-01-25 09:51:00,
2013-01-25 03:56:00,58.6,58.3,30.06,SE,142,1.0,3.0,99,0.00,,,0.00,meteohub,2013-01-25 09:56:00,
2013-01-25 04:01:00,58.5,58.1,30.06,SE,139,2.0,3.0,99,0.00,,,0.00,meteohub,2013-01-25 10:01:00,
2013-01-25 04:06:00,58.3,57.9,30.06,SE,146,2.0,3.0,99,0.00,,,0.00,meteohub,2013-01-25 10:06:00,
2013-01-25 04:11:00,58.3,57.9,30.06,SSE,160,3.0,3.0,99,0.00,,,0.00,meteohub,2013-01-25 10:11:00,
2013-01-25 04:16:00,58.3,57.9,30.06,SSE,155,2.0,4.0,99,0.00,,,0.00,meteohub,2013-01-25 10:16:00,
2013-01-25 04:21:00,58.1,57.7,30.06,SE,146,2.0,4.0,99,0.00,,,0.00,meteohub,2013-01-25 10:21:00,
2013-01-25 04:26:00,57.9,57.6,30.06,SSE,155,2.0,4.0,99,0.00,,,0.00,meteohub,2013-01-25 10:26:00,
2013-01-25 04:31:00,57.9,57.6,30.06,SSE,156,2.0,4.0,99,0.00,,,0.00,meteohub,2013-01-25 10:31:00,
2013-01-25 04:36:00,57.7,57.4,30.06,SE,141,1.0,4.0,99,0.00,,,0.00,meteohub,2013-01-25 10:36:00,
2013-01-25 04:41:00,57.7,57.4,30.05,SE,134,1.0,2.0,99,0.00,,,0.00,meteohub,2013-01-25 10:41:00,
2013-01-25 04:47:00,57.7,57.4,30.06,SE,139,1.0,2.0,99,0.00,,,0.00,meteohub,2013-01-25 10:47:00,
2013-01-25 04:52:00,57.7,57.4,30.06,SE,130,0.0,2.0,99,0.00,,,0.00,meteohub,2013-01-25 10:52:00,
2013-01-25 04:57:00,57.6,57.2,30.06,SE,130,0.0,2.0,99,0.00,,,0.00,meteohub,2013-01-25 10:57:00,
2013-01-25 05:02:00,57.6,57.2,30.06,SE,130,0.0,2.0,99,0.00,,,0.00,meteohub,2013-01-25 11:02:00,
2013-01-25 05:07:00,57.4,57.0,30.06,SE,129,0.0,1.0,99,0.00,,,0.00,meteohub,2013-01-25 11:07:00,
2013-01-25 05:12:00,57.4,57.0,30.06,SE,128,1.0,0.0,99,0.00,,,0.00,meteohub,2013-01-25 11:12:00,
2013-01-25 05:17:00,57.6,57.2,30.06,ESE,116,3.0,3.0,99,0.00,,,0.00,meteohub,2013-01-25 11:17:00,
2013-01-25 05:22:00,57.6,57.2,30.06,ESE,123,2.0,4.0,99,0.00,,,0.00,meteohub,2013-01-25 11:22:00,
2013-01-25 05:27:00,57.4,57.0,30.06,SE,124,2.0,4.0,99,0.00,,,0.00,meteohub,2013-01-25 11:27:00,
2013-01-25 05:32:00,57.4,57.0,30.06,SE,136,2.0,4.0,99,0.00,,,0.00,meteohub,2013-01-25 11:32:00,
2013-01-25 05:37:00,57.4,57.0,30.06,ESE,119,3.0,4.0,99,0.00,,,0.00,meteohub,2013-01-25 11:37:00,
2013-01-25 05:42:00,57.4,57.0,30.06,SE,131,2.0,4.0,99,0.00,,,0.00,meteohub,2013-01-25 11:42:00,
2013-01-25 05:47:00,57.2,56.8,30.06,SE,127,2.0,4.0,99,0.01,,,0.01,meteohub,2013-01-25 11:47:00,
2013-01-25 05:52:00,57.0,56.7,30.06,SE,139,2.0,4.0,99,0.01,,,0.01,meteohub,2013-01-25 11:52:00,
2013-01-25 05:57:00,57.0,56.7,30.06,SE,133,2.0,4.0,99,0.01,,,0.01,meteohub,2013-01-25 11:57:00,
2013-01-25 06:01:00,56.8,56.5,30.06,SSE,150,1.0,3.0,99,0.01,,,0.01,meteohub,2013-01-25 12:01:00,
2013-01-25 06:07:00,56.7,56.3,30.06,South,180,2.0,3.0,99,0.01,,,0.01,meteohub,2013-01-25 12:07:00,
2013-01-25 06:12:00,56.5,56.1,30.06,SE,138,2.0,3.0,99,0.01,,,0.01,meteohub,2013-01-25 12:12:00,
2013-01-25 06:17:00,56.1,55.8,30.06,SE,131,2.0,3.0,99,0.01,,,0.01,meteohub,2013-01-25 12:17:00,
2013-01-25 06:22:00,55.9,55.6,30.06,SE,133,2.0,4.0,99,0.01,,,0.01,meteohub,2013-01-25 12:22:00,
2013-01-25 06:27:00,55.9,55.6,30.06,SSE,155,3.0,4.0,99,0.01,,,0.01,meteohub,2013-01-25 12:27:00,
2013-01-25 06:32:00,55.9,55.6,30.06,SE,146,2.0,5.0,99,0.01,,,0.01,meteohub,2013-01-25 12:32:00,
2013-01-25 06:37:00,55.9,55.6,30.06,SE,137,3.0,5.0,99,0.01,,,0.01,meteohub,2013-01-25 12:37:00,
2013-01-25 06:42:00,55.8,55.4,30.06,SE,134,3.0,5.0,99,0.01,,,0.01,meteohub,2013-01-25 12:42:00,
2013-01-25 06:47:00,55.9,55.6,30.06,SE,137,1.0,4.0,99,0.00,,,0.01,meteohub,2013-01-25 12:47:00,
2013-01-25 06:52:00,55.9,55.6,30.06,SE,137,2.0,4.0,99,0.00,,,0.01,meteohub,2013-01-25 12:52:00,
2013-01-25 06:57:00,55.9,55.6,30.07,SSE,154,3.0,4.0,99,0.00,,,0.01,meteohub,2013-01-25 12:57:00,
2013-01-25 07:02:00,55.9,55.6,30.06,SSE,150,3.0,4.0,99,0.00,,,0.01,meteohub,2013-01-25 13:02:00,
2013-01-25 07:07:00,55.8,55.4,30.06,SE,139,2.0,4.0,99,0.00,,,0.01,meteohub,2013-01-25 13:07:00,
2013-01-25 07:12:00,55.9,55.6,30.06,SE,146,2.0,4.0,99,0.00,,,0.01,meteohub,2013-01-25 13:12:00,
2013-01-25 07:17:00,55.9,55.6,30.07,SE,136,1.0,4.0,99,0.00,,,0.01,meteohub,2013-01-25 13:17:00,
2013-01-25 07:22:00,55.9,55.6,30.07,SE,134,1.0,4.0,99,0.00,,,0.01,meteohub,2013-01-25 13:22:00,
2013-01-25 07:27:00,55.9,55.6,30.07,SE,132,0.0,4.0,99,0.00,,,0.01,meteohub,2013-01-25 13:27:00,
2013-01-25 07:32:00,55.9,55.6,30.07,SE,134,2.0,3.0,99,0.00,,,0.01,meteohub,2013-01-25 13:32:00,
2013-01-25 07:37:00,56.1,55.8,30.07,SE,132,2.0,3.0,99,0.00,,,0.01,meteohub,2013-01-25 13:37:00,
2013-01-25 07:42:00,56.3,55.9,30.07,SE,134,2.0,3.0,99,0.00,,,0.01,meteohub,2013-01-25 13:42:00,
2013-01-25 07:47:00,56.5,56.1,30.07,SE,127,2.0,3.0,99,0.00,,,0.01,meteohub,2013-01-25 13:47:00,
2013-01-25 07:52:00,56.5,56.1,30.07,ESE,117,2.0,4.0,99,0.00,,,0.01,meteohub,2013-01-25 13:52:00,
2013-01-25 07:57:00,56.7,56.3,30.07,SE,142,1.0,4.0,99,0.00,,,0.01,meteohub,2013-01-25 13:57:00,
2013-01-25 08:02:00,56.7,56.3,30.07,SE,131,2.0,4.0,99,0.00,,,0.01,meteohub,2013-01-25 14:02:00,
2013-01-25 08:07:00,56.8,56.5,30.08,SE,143,2.0,4.0,99,0.00,,,0.01,meteohub,2013-01-25 14:07:00,
2013-01-25 08:12:00,57.4,57.0,30.08,SE,139,2.0,4.0,99,0.00,,,0.01,meteohub,2013-01-25 14:12:00,
2013-01-25 08:17:00,57.9,57.6,30.08,SE,143,2.0,4.0,99,0.00,,,0.01,meteohub,2013-01-25 14:17:00,
2013-01-25 08:22:00,58.6,58.3,30.08,SSE,158,1.0,4.0,99,0.00,,,0.01,meteohub,2013-01-25 14:22:00,
2013-01-25 08:27:00,59.2,58.8,30.08,SSE,160,1.0,4.0,99,0.00,,,0.01,meteohub,2013-01-25 14:27:00,
2013-01-25 08:32:00,59.5,59.2,30.08,SE,141,0.0,4.0,99,0.00,,,0.01,meteohub,2013-01-25 14:32:00,
2013-01-25 08:37:00,59.9,59.9,30.08,SE,127,2.0,4.0,100,0.00,,,0.01,meteohub,2013-01-25 14:37:00,
2013-01-25 08:42:00,60.4,60.4,30.09,South,170,2.0,4.0,100,0.00,,,0.01,meteohub,2013-01-25 14:42:00,
2013-01-25 08:47:00,61.3,61.3,30.09,SE,134,3.0,4.0,100,0.00,,,0.01,meteohub,2013-01-25 14:47:00,
2013-01-25 08:52:00,62.2,62.2,30.09,SSW,200,2.0,4.0,100,0.00,,,0.01,meteohub,2013-01-25 14:52:00,
2013-01-25 08:57:00,63.0,63.0,30.09,SSE,162,1.0,4.0,100,0.00,,,0.01,meteohub,2013-01-25 14:57:00,
2013-01-25 09:02:00,63.3,63.3,30.09,SSE,152,4.0,4.0,100,0.00,,,0.01,meteohub,2013-01-25 15:02:00,
2013-01-25 09:07:00,63.7,63.7,30.09,SSE,153,2.0,5.0,100,0.00,,,0.01,meteohub,2013-01-25 15:07:00,
2013-01-25 09:12:00,64.2,64.2,30.09,SE,144,6.0,6.0,100,0.00,,,0.01,meteohub,2013-01-25 15:12:00,
2013-01-25 09:17:00,64.8,64.8,30.09,SE,141,6.0,8.0,100,0.00,,,0.01,meteohub,2013-01-25 15:17:00,
2013-01-25 09:22:00,65.1,65.1,30.09,SSE,167,7.0,10.0,100,0.00,,,0.01,meteohub,2013-01-25 15:22:00,
2013-01-25 09:27:00,65.8,65.8,30.09,SSE,162,10.0,11.0,100,0.00,,,0.01,meteohub,2013-01-25 15:27:00,
2013-01-25 09:32:00,66.0,66.0,30.09,South,174,7.0,13.0,100,0.00,,,0.01,meteohub,2013-01-25 15:32:00,
2013-01-25 09:37:00,66.4,66.4,30.09,SE,130,11.0,16.0,100,0.00,,,0.01,meteohub,2013-01-25 15:37:00,
2013-01-25 09:42:00,66.6,66.6,30.10,South,190,12.0,16.0,100,0.00,,,0.01,meteohub,2013-01-25 15:42:00,
2013-01-25 09:47:00,66.7,66.7,30.10,South,177,7.0,16.0,100,0.00,,,0.01,meteohub,2013-01-25 15:47:00,
2013-01-25 09:52:00,66.9,66.9,30.10,SE,138,11.0,16.0,100,0.00,,,0.01,meteohub,2013-01-25 15:52:00,
2013-01-25 09:57:00,67.5,67.5,30.10,South,169,10.0,16.0,100,0.00,,,0.01,meteohub,2013-01-25 15:57:00,
2013-01-25 10:02:00,67.6,67.6,30.10,SSE,156,9.0,17.0,100,0.00,,,0.01,meteohub,2013-01-25 16:02:00,
2013-01-25 10:07:00,67.8,67.8,30.10,South,172,13.0,17.0,100,0.00,,,0.01,meteohub,2013-01-25 16:07:00,
2013-01-25 10:12:00,68.5,68.5,30.10,SSW,193,16.0,19.0,100,0.00,,,0.01,meteohub,2013-01-25 16:12:00,
2013-01-25 10:17:00,68.9,68.9,30.10,South,179,11.0,19.0,100,0.00,,,0.01,meteohub,2013-01-25 16:17:00,
2013-01-25 10:22:00,69.4,69.4,30.10,SSW,193,13.0,21.0,100,0.00,,,0.01,meteohub,2013-01-25 16:22:00,
2013-01-25 10:27:00,70.9,70.5,30.10,SSE,158,13.0,21.0,99,0.00,,,0.01,meteohub,2013-01-25 16:27:00,
2013-01-25 10:32:00,72.7,69.6,30.10,SSE,160,6.0,21.0,90,0.00,,,0.01,meteohub,2013-01-25 16:32:00,
2013-01-25 10:37:00,73.8,68.4,30.10,SSE,155,11.0,19.0,83,0.00,,,0.01,meteohub,2013-01-25 16:37:00,
2013-01-25 10:42:00,74.7,67.6,30.10,SSW,203,7.0,17.0,79,0.00,,,0.01,meteohub,2013-01-25 16:42:00,
2013-01-25 10:47:00,75.2,67.5,30.10,SSW,212,9.0,17.0,77,0.00,,,0.01,meteohub,2013-01-25 16:47:00,
2013-01-25 10:53:00,75.7,67.6,30.10,South,188,9.0,16.0,76,0.00,,,0.01,meteohub,2013-01-25 16:53:00,
2013-01-25 10:58:00,76.3,67.5,30.10,SE,146,11.0,15.0,74,0.00,,,0.01,meteohub,2013-01-25 16:58:00,
2013-01-25 11:03:00,76.3,67.5,30.10,ESE,119,9.0,16.0,74,0.00,,,0.01,meteohub,2013-01-25 17:03:00,
2013-01-25 11:08:00,76.6,66.9,30.10,SSE,167,3.0,16.0,72,0.00,,,0.01,meteohub,2013-01-25 17:08:00,
2013-01-25 11:13:00,76.8,66.2,30.10,SSW,208,13.0,16.0,70,0.00,,,0.01,meteohub,2013-01-25 17:13:00,
2013-01-25 11:18:00,76.8,66.7,30.10,South,174,8.0,18.0,71,0.00,,,0.01,meteohub,2013-01-25 17:18:00,
2013-01-25 11:23:00,77.4,66.7,30.10,SSE,166,11.0,18.0,70,0.00,,,0.01,meteohub,2013-01-25 17:23:00,
2013-01-25 11:28:00,77.5,66.9,30.09,SSW,194,7.0,18.0,70,0.00,,,0.01,meteohub,2013-01-25 17:28:00,
2013-01-25 11:33:00,77.9,66.9,30.09,SSE,153,13.0,18.0,69,0.00,,,0.01,meteohub,2013-01-25 17:33:00,
2013-01-25 11:38:00,78.3,66.7,30.09,SW,225,16.0,17.0,68,0.00,,,0.01,meteohub,2013-01-25 17:38:00,
2013-01-25 11:43:00,78.4,66.9,30.09,South,172,8.0,17.0,68,0.00,,,0.01,meteohub,2013-01-25 17:43:00,
2013-01-25 11:48:00,78.6,66.7,30.09,South,186,10.0,18.0,67,0.00,,,0.01,meteohub,2013-01-25 17:48:00,
2013-01-25 11:53:00,78.4,66.6,30.08,SSE,163,5.0,18.0,67,0.00,,,0.01,meteohub,2013-01-25 17:53:00,
2013-01-25 11:58:00,78.8,66.6,30.08,SE,136,10.0,16.0,66,0.00,,,0.01,meteohub,2013-01-25 17:58:00,
2013-01-25 12:04:00,79.0,66.2,30.08,South,184,10.0,17.0,65,0.00,,,0.01,meteohub,2013-01-25 18:04:00,
2013-01-25 12:09:00,79.3,66.6,30.07,SSE,162,6.0,17.0,65,0.00,,,0.01,meteohub,2013-01-25 18:09:00,
2013-01-25 12:14:00,79.9,66.6,30.07,SSE,157,12.0,17.0,64,0.00,,,0.01,meteohub,2013-01-25 18:14:00,
2013-01-25 12:19:00,80.1,66.7,30.06,SE,146,7.0,16.0,64,0.00,,,0.01,meteohub,2013-01-25 18:19:00,
2013-01-25 12:24:00,80.4,66.7,30.06,South,174,9.0,15.0,63,0.00,,,0.01,meteohub,2013-01-25 18:24:00,
2013-01-25 12:29:00,80.4,66.2,30.06,SSE,153,5.0,15.0,62,0.00,,,0.01,meteohub,2013-01-25 18:29:00,
2013-01-25 12:34:00,80.6,66.4,30.06,SSW,193,14.0,15.0,62,0.00,,,0.01,meteohub,2013-01-25 18:34:00,
2013-01-25 12:39:00,80.8,66.0,30.05,SE,133,9.0,15.0,61,0.00,,,0.01,meteohub,2013-01-25 18:39:00,
2013-01-25 12:44:00,80.4,65.7,30.05,SSW,195,7.0,15.0,61,0.00,,,0.01,meteohub,2013-01-25 18:44:00,
2013-01-25 12:49:00,80.2,66.0,30.04,SE,129,6.0,15.0,62,0.00,,,0.01,meteohub,2013-01-25 18:49:00,
2013-01-25 12:54:00,80.4,66.2,30.04,ESE,121,8.0,16.0,62,0.00,,,0.01,meteohub,2013-01-25 18:54:00,
2013-01-25 12:59:00,80.8,66.0,30.04,SSE,163,5.0,16.0,61,0.00,,,0.01,meteohub,2013-01-25 18:59:00,
2013-01-25 13:04:00,81.0,66.7,30.03,SE,143,8.0,19.0,62,0.00,,,0.01,meteohub,2013-01-25 19:04:00,
2013-01-25 13:09:00,81.5,65.8,30.03,South,188,11.0,19.0,59,0.00,,,0.01,meteohub,2013-01-25 19:09:00,
2013-01-25 13:14:00,81.3,66.0,30.03,South,174,8.0,19.0,60,0.00,,,0.01,meteohub,2013-01-25 19:14:00,
2013-01-25 13:20:00,81.3,66.6,30.02,SE,141,4.0,17.0,61,0.00,,,0.01,meteohub,2013-01-25 19:20:00,
2013-01-25 13:25:00,81.7,66.4,30.02,SSW,201,8.0,17.0,60,0.00,,,0.01,meteohub,2013-01-25 19:25:00,
2013-01-25 13:30:00,81.7,66.9,30.02,SE,129,16.0,17.0,61,0.00,,,0.01,meteohub,2013-01-25 19:30:00,
2013-01-25 13:35:00,81.1,66.0,30.02,ESE,118,6.0,19.0,60,0.00,,,0.01,meteohub,2013-01-25 19:35:00,
2013-01-25 13:40:00,81.7,66.9,30.02,SE,146,8.0,19.0,61,0.00,,,0.01,meteohub,2013-01-25 19:40:00,
2013-01-25 13:45:00,81.7,66.9,30.01,South,191,13.0,19.0,61,0.00,,,0.01,meteohub,2013-01-25 19:45:00,
2013-01-25 13:50:00,81.9,67.1,30.01,SSE,162,10.0,18.0,61,0.00,,,0.01,meteohub,2013-01-25 19:50:00,
2013-01-25 13:55:00,82.2,66.9,30.01,ESE,117,7.0,17.0,60,0.00,,,0.01,meteohub,2013-01-25 19:55:00,
2013-01-25 14:00:00,81.7,67.5,30.01,SSE,166,15.0,17.0,62,0.00,,,0.01,meteohub,2013-01-25 20:00:00,
2013-01-25 14:05:00,81.3,67.1,30.01,SE,138,8.0,17.0,62,0.00,,,0.01,meteohub,2013-01-25 20:05:00,
2013-01-25 14:10:00,81.3,67.5,30.01,South,184,13.0,19.0,63,0.00,,,0.01,meteohub,2013-01-25 20:10:00,
2013-01-25 14:15:00,81.5,67.6,30.01,SE,125,8.0,19.0,63,0.00,,,0.01,meteohub,2013-01-25 20:15:00,
2013-01-25 14:20:00,81.3,67.5,30.00,SE,139,13.0,16.0,63,0.00,,,0.01,meteohub,2013-01-25 20:20:00,
2013-01-25 14:25:00,81.0,67.1,30.00,SE,127,13.0,15.0,63,0.00,,,0.01,meteohub,2013-01-25 20:25:00,
2013-01-25 14:31:00,81.1,67.3,30.00,SE,133,10.0,15.0,63,0.00,,,0.01,meteohub,2013-01-25 20:31:00,
2013-01-25 14:36:00,81.1,67.3,30.00,SSW,198,9.0,16.0,63,0.00,,,0.01,meteohub,2013-01-25 20:36:00,
2013-01-25 14:41:00,81.1,67.3,30.00,ESE,104,11.0,16.0,63,0.00,,,0.01,meteohub,2013-01-25 20:41:00,
2013-01-25 14:46:00,81.3,67.5,30.00,SSE,162,6.0,16.0,63,0.00,,,0.01,meteohub,2013-01-25 20:46:00,
2013-01-25 14:51:00,81.0,67.6,29.99,SE,143,16.0,16.0,64,0.00,,,0.01,meteohub,2013-01-25 20:51:00,
2013-01-25 14:56:00,81.1,67.3,29.99,SE,139,7.0,19.0,63,0.00,,,0.01,meteohub,2013-01-25 20:56:00,
2013-01-25 15:01:00,81.3,67.5,29.99,SE,137,11.0,19.0,63,0.00,,,0.01,meteohub,2013-01-25 21:01:00,
2013-01-25 15:06:00,81.0,67.6,29.99,SE,143,12.0,17.0,64,0.00,,,0.01,meteohub,2013-01-25 21:06:00,
2013-01-25 15:11:00,81.0,67.6,29.99,ESE,117,13.0,19.0,64,0.00,,,0.01,meteohub,2013-01-25 21:11:00,
2013-01-25 15:16:00,81.0,67.6,29.99,SSE,150,13.0,19.0,64,0.00,,,0.01,meteohub,2013-01-25 21:16:00,
2013-01-25 15:21:00,81.0,67.1,29.99,ESE,117,12.0,19.0,63,0.00,,,0.01,meteohub,2013-01-25 21:21:00,
2013-01-25 15:26:00,81.3,67.5,29.99,SE,143,13.0,18.0,63,0.00,,,0.01,meteohub,2013-01-25 21:26:00,
2013-01-25 15:31:00,81.0,67.1,29.99,SSW,193,9.0,18.0,63,0.00,,,0.01,meteohub,2013-01-25 21:31:00,
2013-01-25 15:36:00,81.0,67.1,29.99,SSE,158,14.0,16.0,63,0.00,,,0.01,meteohub,2013-01-25 21:36:00,
2013-01-25 15:41:00,80.8,67.5,29.99,SE,138,8.0,16.0,64,0.00,,,0.01,meteohub,2013-01-25 21:41:00,
2013-01-25 15:46:00,81.0,67.1,29.99,SE,127,14.0,16.0,63,0.00,,,0.01,meteohub,2013-01-25 21:46:00,
2013-01-25 15:51:00,81.0,67.6,29.98,SSE,160,11.0,17.0,64,0.00,,,0.01,meteohub,2013-01-25 21:51:00,
2013-01-25 15:56:00,80.4,67.1,29.98,SSE,152,13.0,19.0,64,0.00,,,0.01,meteohub,2013-01-25 21:56:00,
2013-01-25 16:01:00,80.1,67.3,29.98,SE,143,7.0,19.0,65,0.00,,,0.01,meteohub,2013-01-25 22:01:00,
2013-01-25 16:06:00,80.1,67.3,29.98,SE,146,16.0,21.0,65,0.00,,,0.01,meteohub,2013-01-25 22:06:00,
2013-01-25 16:11:00,79.5,67.1,29.98,SE,129,9.0,21.0,66,0.00,,,0.01,meteohub,2013-01-25 22:11:00,
2013-01-25 16:16:00,79.5,67.1,29.98,SE,134,10.0,21.0,66,0.00,,,0.01,meteohub,2013-01-25 22:16:00,
2013-01-25 16:21:00,79.3,66.9,29.98,SE,127,11.0,20.0,66,0.00,,,0.01,meteohub,2013-01-25 22:21:00,
2013-01-25 16:26:00,79.2,66.7,29.98,South,176,14.0,20.0,66,0.00,,,0.01,meteohub,2013-01-25 22:26:00,
2013-01-25 16:31:00,78.8,66.9,29.98,SE,129,18.0,20.0,67,0.00,,,0.01,meteohub,2013-01-25 22:31:00,
2013-01-25 16:36:00,78.4,66.6,29.98,SE,141,18.0,21.0,67,0.00,,,0.01,meteohub,2013-01-25 22:36:00,
2013-01-25 16:41:00,78.1,66.7,29.98,SSE,158,11.0,21.0,68,0.00,,,0.01,meteohub,2013-01-25 22:41:00,
2013-01-25 16:46:00,78.1,66.7,29.99,SSE,152,14.0,21.0,68,0.00,,,0.01,meteohub,2013-01-25 22:46:00,
2013-01-25 16:51:00,77.5,66.6,29.99,SSE,149,12.0,21.0,69,0.00,,,0.01,meteohub,2013-01-25 22:51:00,
2013-01-25 16:56:00,77.4,66.4,29.99,SE,141,12.0,21.0,69,0.00,,,0.01,meteohub,2013-01-25 22:56:00,
2013-01-25 17:01:00,77.2,66.6,29.99,SSE,149,10.0,23.0,70,0.00,,,0.01,meteohub,2013-01-25 23:01:00,
2013-01-25 17:06:00,76.6,66.2,29.99,SE,136,12.0,23.0,70,0.00,,,0.01,meteohub,2013-01-25 23:06:00,
2013-01-25 17:11:00,76.5,66.4,29.99,ESE,119,16.0,23.0,71,0.00,,,0.01,meteohub,2013-01-25 23:11:00,
2013-01-25 17:16:00,76.3,66.2,29.99,ESE,112,9.0,25.0,71,0.00,,,0.01,meteohub,2013-01-25 23:16:00,
2013-01-25 17:21:00,75.9,66.2,29.99,SSE,152,17.0,25.0,72,0.00,,,0.01,meteohub,2013-01-25 23:21:00,
2013-01-25 17:26:00,75.6,66.4,29.99,SE,134,11.0,21.0,73,0.00,,,0.01,meteohub,2013-01-25 23:26:00,
2013-01-25 17:31:00,75.4,66.2,29.99,SSE,153,11.0,21.0,73,0.00,,,0.01,meteohub,2013-01-25 23:31:00,
2013-01-25 17:36:00,75.0,65.8,30.00,SSE,158,14.0,21.0,73,0.00,,,0.01,meteohub,2013-01-25 23:36:00,
2013-01-25 17:41:00,74.8,66.0,30.00,SE,143,17.0,21.0,74,0.00,,,0.01,meteohub,2013-01-25 23:41:00,
2013-01-25 17:46:00,74.5,65.7,30.00,ESE,115,14.0,20.0,74,0.00,,,0.01,meteohub,2013-01-25 23:46:00,
2013-01-25 17:51:00,74.1,65.7,30.00,ESE,121,11.0,19.0,75,0.00,,,0.01,meteohub,2013-01-25 23:51:00,
2013-01-25 17:56:00,73.9,65.5,30.00,ESE,121,12.0,19.0,75,0.00,,,0.01,meteohub,2013-01-25 23:56:00,
2013-01-25 18:01:00,73.6,65.5,30.00,SE,132,9.0,21.0,76,0.00,,,0.01,meteohub,2013-01-26 00:01:00,
2013-01-25 18:06:00,73.2,65.1,30.01,SE,138,13.0,21.0,76,0.00,,,0.00,meteohub,2013-01-26 00:06:00,
2013-01-25 18:11:00,73.0,65.5,30.01,SSE,163,9.0,22.0,77,0.00,,,0.00,meteohub,2013-01-26 00:11:00,
2013-01-25 18:16:00,72.7,65.1,30.01,East,100,14.0,22.0,77,0.00,,,0.00,meteohub,2013-01-26 00:16:00,
2013-01-25 18:21:00,72.3,65.1,30.01,SE,124,13.0,22.0,78,0.00,,,0.00,meteohub,2013-01-26 00:21:00,
2013-01-25 18:26:00,72.1,65.3,30.01,ESE,110,13.0,21.0,79,0.00,,,0.00,meteohub,2013-01-26 00:26:00,
2013-01-25 18:31:00,72.0,65.1,30.01,SSE,149,8.0,21.0,79,0.00,,,0.00,meteohub,2013-01-26 00:31:00,
2013-01-25 18:36:00,71.8,65.3,30.01,SE,146,11.0,20.0,80,0.00,,,0.00,meteohub,2013-01-26 00:36:00,
2013-01-25 18:41:00,71.6,65.1,30.01,SE,129,10.0,20.0,80,0.00,,,0.00,meteohub,2013-01-26 00:41:00,
2013-01-25 18:46:00,71.4,65.3,30.01,East,96,12.0,20.0,81,0.00,,,0.00,meteohub,2013-01-26 00:46:00,
2013-01-25 19:25:00,70.2,65.1,30.01,SSE,149,9.0,18.0,84,0.00,,,0.00,meteohub,2013-01-26 01:25:00,
2013-01-25 19:30:00,70.0,64.9,30.01,SE,146,9.0,18.0,84,0.00,,,0.00,meteohub,2013-01-26 01:30:00,
2013-01-25 19:35:00,69.8,64.8,30.01,SE,141,12.0,22.0,84,0.00,,,0.00,meteohub,2013-01-26 01:35:00,
2013-01-25 19:40:00,69.6,64.9,30.02,SE,138,9.0,22.0,85,0.00,,,0.00,meteohub,2013-01-26 01:40:00,
2013-01-25 19:45:00,69.6,64.9,30.02,SE,128,10.0,18.0,85,0.00,,,0.00,meteohub,2013-01-26 01:45:00,
2013-01-25 19:50:00,69.4,64.8,30.02,SSE,153,9.0,18.0,85,0.00,,,0.00,meteohub,2013-01-26 01:50:00,
2013-01-25 19:55:00,69.4,65.1,30.02,SSE,160,10.0,19.0,86,0.00,,,0.00,meteohub,2013-01-26 01:55:00,
2013-01-25 20:00:00,69.3,64.9,30.02,ESE,116,10.0,19.0,86,0.00,,,0.00,meteohub,2013-01-26 02:00:00,
2013-01-25 20:05:00,69.3,64.9,30.02,SE,124,12.0,19.0,86,0.00,,,0.00,meteohub,2013-01-26 02:05:00,
2013-01-25 20:10:00,69.1,64.8,30.02,SE,139,9.0,17.0,86,0.00,,,0.00,meteohub,2013-01-26 02:10:00,
2013-01-25 20:15:00,69.1,65.1,30.02,SSW,193,8.0,17.0,87,0.00,,,0.00,meteohub,2013-01-26 02:15:00,
2013-01-25 20:20:00,68.9,64.9,30.01,ESE,116,12.0,17.0,87,0.00,,,0.00,meteohub,2013-01-26 02:20:00,
2013-01-25 20:25:00,68.7,64.8,30.01,ESE,113,14.0,17.0,87,0.00,,,0.00,meteohub,2013-01-26 02:25:00,
2013-01-25 20:30:00,68.7,64.8,30.01,SE,136,9.0,16.0,87,0.00,,,0.00,meteohub,2013-01-26 02:30:00,
2013-01-25 20:35:00,68.5,64.8,30.01,SE,139,8.0,18.0,88,0.00,,,0.00,meteohub,2013-01-26 02:35:00,
2013-01-25 20:40:00,68.5,64.8,30.02,SE,139,10.0,18.0,88,0.00,,,0.00,meteohub,2013-01-26 02:40:00,
2013-01-25 20:45:00,68.5,64.8,30.02,SSE,163,12.0,18.0,88,0.00,,,0.00,meteohub,2013-01-26 02:45:00,
2013-01-25 20:50:00,68.5,64.8,30.02,SE,146,15.0,17.0,88,0.00,,,0.00,meteohub,2013-01-26 02:50:00,
2013-01-25 20:55:00,68.5,64.8,30.02,SSE,167,13.0,17.0,88,0.00,,,0.00,meteohub,2013-01-26 02:55:00,
2013-01-25 21:00:00,68.4,64.6,30.02,SSE,152,8.0,17.0,88,0.00,,,0.00,meteohub,2013-01-26 03:00:00,
2013-01-25 21:05:00,68.4,64.6,30.02,SE,128,7.0,17.0,88,0.00,,,0.00,meteohub,2013-01-26 03:05:00,
2013-01-25 21:10:00,68.4,64.6,30.02,SSE,157,13.0,15.0,88,0.00,,,0.00,meteohub,2013-01-26 03:10:00,
2013-01-25 21:15:00,68.4,64.6,30.02,SSE,151,12.0,15.0,88,0.00,,,0.00,meteohub,2013-01-26 03:15:00,
2013-01-25 21:20:00,68.4,64.6,30.03,SE,131,11.0,15.0,88,0.00,,,0.00,meteohub,2013-01-26 03:20:00,
2013-01-25 21:25:00,68.4,64.6,30.03,SE,136,11.0,15.0,88,0.00,,,0.00,meteohub,2013-01-26 03:25:00,
2013-01-25 21:30:00,68.4,64.9,30.03,South,173,12.0,15.0,89,0.00,,,0.00,meteohub,2013-01-26 03:30:00,
2013-01-25 21:35:00,68.2,64.8,30.03,SE,127,9.0,16.0,89,0.00,,,0.00,meteohub,2013-01-26 03:35:00,
2013-01-25 21:40:00,68.2,64.8,30.03,SE,134,9.0,16.0,89,0.00,,,0.00,meteohub,2013-01-26 03:40:00,
2013-01-25 21:45:00,68.2,64.8,30.03,South,173,8.0,17.0,89,0.00,,,0.00,meteohub,2013-01-26 03:45:00,
2013-01-25 21:50:00,68.2,64.8,30.03,SE,133,11.0,17.0,89,0.00,,,0.00,meteohub,2013-01-26 03:50:00,
2013-01-25 21:55:00,68.0,64.6,30.04,SE,143,10.0,17.0,89,0.00,,,0.00,meteohub,2013-01-26 03:55:00,
2013-01-25 22:00:00,68.0,64.6,30.04,SE,141,12.0,14.0,89,0.00,,,0.00,meteohub,2013-01-26 04:00:00,
2013-01-25 22:05:00,67.8,64.4,30.04,SE,145,8.0,14.0,89,0.00,,,0.00,meteohub,2013-01-26 04:05:00,
2013-01-25 22:10:00,67.8,64.4,30.04,South,174,10.0,15.0,89,0.00,,,0.00,meteohub,2013-01-26 04:10:00,
2013-01-25 22:15:00,67.8,64.8,30.04,SE,137,8.0,15.0,90,0.00,,,0.00,meteohub,2013-01-26 04:15:00,
2013-01-25 22:20:00,67.8,64.8,30.04,SE,136,10.0,15.0,90,0.00,,,0.00,meteohub,2013-01-26 04:20:00,
2013-01-25 22:25:00,67.8,64.8,30.04,SSE,157,12.0,15.0,90,0.00,,,0.00,meteohub,2013-01-26 04:25:00,
2013-01-25 22:30:00,67.8,64.8,30.04,SE,134,9.0,15.0,90,0.00,,,0.00,meteohub,2013-01-26 04:30:00,
2013-01-25 22:35:00,67.8,64.8,30.05,SE,142,8.0,15.0,90,0.00,,,0.00,meteohub,2013-01-26 04:35:00,
2013-01-25 22:40:00,67.6,64.6,30.05,SE,137,7.0,15.0,90,0.00,,,0.00,meteohub,2013-01-26 04:40:00,
2013-01-25 22:45:00,67.6,64.6,30.05,SE,143,9.0,14.0,90,0.00,,,0.00,meteohub,2013-01-26 04:45:00,
2013-01-25 22:50:00,67.6,64.9,30.05,SE,146,8.0,15.0,91,0.00,,,0.00,meteohub,2013-01-26 04:50:00,
2013-01-25 22:55:00,67.5,64.8,30.06,SSE,149,7.0,15.0,91,0.00,,,0.00,meteohub,2013-01-26 04:55:00,
2013-01-25 23:00:00,67.3,64.6,30.06,SSE,148,5.0,15.0,91,0.00,,,0.00,meteohub,2013-01-26 05:00:00,
2013-01-25 23:01:00,67.3,64.6,30.06,SSE,163,7.0,13.0,91,0.00,,,0.00,meteohub,2013-01-26 05:01:00,
2013-01-25 23:02:00,67.3,64.6,30.06,SSE,155,8.0,13.0,91,0.00,,,0.00,meteohub,2013-01-26 05:02:00,
2013-01-25 23:04:00,67.3,64.6,30.06,SSE,155,7.0,13.0,91,0.00,,,0.00,meteohub,2013-01-26 05:04:00,
2013-01-25 23:09:00,67.1,64.8,30.06,SSE,149,6.0,11.0,92,0.00,,,0.00,meteohub,2013-01-26 05:09:00,
2013-01-25 23:14:00,66.9,64.6,30.06,SSE,153,6.0,11.0,92,0.00,,,0.00,meteohub,2013-01-26 05:14:00,
2013-01-25 23:19:00,66.7,64.4,30.06,SSE,165,10.0,11.0,92,0.00,,,0.00,meteohub,2013-01-26 05:19:00,
2013-01-25 23:24:00,66.6,64.2,30.06,SSW,193,6.0,10.0,92,0.00,,,0.00,meteohub,2013-01-26 05:24:00,
2013-01-25 23:29:00,66.6,64.2,30.06,SE,134,4.0,10.0,92,0.00,,,0.00,meteohub,2013-01-26 05:29:00,
2013-01-25 23:34:00,66.4,64.2,30.06,SSE,152,5.0,10.0,93,0.00,,,0.00,meteohub,2013-01-26 05:34:00,
2013-01-25 23:39:00,66.4,64.2,30.06,SSE,165,6.0,10.0,93,0.00,,,0.00,meteohub,2013-01-26 05:39:00,
2013-01-25 23:44:00,66.2,64.0,30.06,SSE,153,5.0,10.0,93,0.00,,,0.00,meteohub,2013-01-26 05:44:00,
2013-01-25 23:49:00,66.0,63.9,30.06,SE,144,7.0,9.0,93,0.00,,,0.00,meteohub,2013-01-26 05:49:00,
2013-01-25 23:54:00,66.0,63.9,30.05,SSE,160,5.0,10.0,93,0.00,,,0.00,meteohub,2013-01-26 05:54:00,
2013-01-25 23:59:00,65.8,63.7,30.06,SSE,166,6.0,10.0,93,0.00,,,0.00,meteohub,2013-01-26 05:59:00,